createdAt,value
2018-06-09T00:00:17.987Z,30.34
2018-06-09T00:02:46.311Z,36.36
2018-06-09T00:05:16.260Z,33.66
2018-06-09T00:07:44.596Z,36.72
2018-06-09T00:10:12.941Z,37.80
2018-06-09T00:12:41.263Z,48.76
2018-06-09T00:15:09.578Z,46.28
2018-06-09T00:17:37.934Z,47.92
2018-06-09T00:20:06.252Z,46.40
2018-06-09T00:22:34.597Z,51.66
2018-06-09T00:25:02.924Z,52.82
2018-06-09T00:27:31.265Z,65.52
2018-06-09T00:29:59.586Z,63.26
2018-06-09T00:32:27.937Z,53.88
2018-06-09T00:34:56.264Z,58.52
2018-06-09T00:37:24.610Z,57.94
2018-06-09T00:39:52.925Z,53.54
2018-06-09T00:42:21.274Z,59.52
2018-06-09T00:44:49.594Z,62.20
2018-06-09T00:47:17.947Z,56.94
2018-06-09T00:49:46.260Z,59.42
2018-06-09T00:52:14.602Z,57.26
2018-06-09T00:54:42.913Z,56.04
2018-06-09T00:57:11.258Z,57.20
2018-06-09T00:59:39.566Z,55.22
2018-06-09T01:02:07.910Z,59.02
2018-06-09T01:04:36.224Z,60.60
2018-06-09T01:07:04.578Z,61.32
2018-06-09T01:09:32.905Z,61.90
2018-06-09T01:12:01.263Z,62.82
2018-06-09T01:14:29.597Z,64.86
2018-06-09T01:16:57.962Z,62.98
2018-06-09T01:19:26.282Z,64.16
2018-06-09T01:21:54.614Z,63.56
2018-06-09T01:24:22.970Z,62.36
2018-06-09T01:26:51.305Z,64.44
2018-06-09T01:29:19.654Z,70.22
2018-06-09T01:31:47.988Z,70.84
2018-06-09T01:34:16.336Z,62.60
2018-06-09T01:36:44.658Z,64.70
2018-06-09T01:39:13.011Z,66.60
2018-06-09T01:41:41.331Z,64.58
2018-06-09T01:44:09.685Z,71.44
2018-06-09T01:46:38.005Z,69.12
2018-06-09T01:49:06.352Z,68.90
2018-06-09T01:51:34.675Z,70.56
2018-06-09T01:54:03.025Z,69.42
2018-06-09T01:56:31.349Z,69.84
2018-06-09T01:58:59.692Z,73.26
2018-06-09T02:01:28.012Z,78.02
2018-06-09T02:03:56.437Z,81.38
2018-06-09T02:06:24.792Z,82.60
2018-06-09T02:08:53.181Z,79.22
2018-06-09T02:11:21.513Z,84.58
2018-06-09T02:13:49.868Z,81.70
2018-06-09T02:16:18.189Z,86.66
2018-06-09T02:18:46.551Z,85.70
2018-06-09T02:21:14.877Z,83.12
2018-06-09T02:23:43.232Z,90.68
2018-06-09T02:26:11.559Z,83.46
2018-06-09T02:28:39.915Z,85.26
2018-06-09T02:31:08.233Z,83.98
2018-06-09T02:33:36.584Z,86.08
2018-06-09T02:36:04.907Z,93.74
2018-06-09T02:38:33.236Z,92.20
2018-06-09T02:41:01.581Z,88.08
2018-06-09T02:43:29.901Z,90.78
2018-06-09T02:45:58.264Z,89.10
2018-06-09T02:48:26.582Z,89.72
2018-06-09T02:50:54.933Z,89.88
2018-06-09T02:53:23.262Z,86.24
2018-06-09T02:55:51.628Z,89.08
2018-06-09T02:58:19.953Z,89.42
2018-06-09T03:00:48.299Z,85.02
2018-06-09T03:03:16.621Z,83.78
2018-06-09T03:05:44.987Z,85.44
2018-06-09T03:08:13.321Z,88.34
2018-06-09T03:10:41.682Z,95.80
2018-06-09T03:13:10.005Z,97.50
2018-06-09T03:15:38.358Z,94.82
2018-06-09T03:18:06.704Z,111.08
2018-06-09T03:20:35.072Z,92.38
2018-06-09T03:23:03.389Z,97.00
2018-06-09T03:25:31.735Z,95.36
2018-06-09T03:28:00.075Z,94.44
2018-06-09T03:30:28.425Z,99.40
2018-06-09T03:32:56.742Z,90.50
2018-06-09T03:35:25.093Z,93.40
2018-06-09T03:37:53.413Z,91.84
2018-06-09T03:40:21.761Z,97.04
2018-06-09T03:42:50.074Z,98.62
2018-06-09T03:45:18.434Z,88.34
2018-06-09T03:47:46.765Z,90.50
2018-06-09T03:50:15.124Z,91.50
2018-06-09T03:52:43.449Z,94.24
2018-06-09T03:55:11.004Z,92.60
2018-06-09T03:57:39.356Z,85.64
2018-06-09T04:00:07.676Z,89.14
2018-06-09T04:02:36.026Z,91.98
2018-06-09T04:05:04.346Z,87.08
2018-06-09T04:07:32.694Z,85.56
2018-06-09T04:10:01.013Z,84.32
2018-06-09T04:12:29.366Z,91.48
2018-06-09T04:14:57.697Z,89.16
2018-06-09T04:17:26.056Z,91.70
2018-06-09T04:19:54.395Z,90.68
2018-06-09T04:22:22.755Z,88.82
2018-06-09T04:24:51.083Z,91.16
2018-06-09T04:27:19.429Z,92.26
2018-06-09T04:29:47.752Z,93.86
2018-06-09T04:32:16.092Z,94.40
2018-06-09T04:34:44.410Z,91.72
2018-06-09T04:37:12.769Z,89.72
2018-06-09T04:39:41.086Z,88.44
2018-06-09T04:42:09.446Z,84.96
2018-06-09T04:44:37.773Z,83.12
2018-06-09T04:47:06.124Z,80.86
2018-06-09T04:49:34.444Z,83.12
2018-06-09T04:52:02.808Z,75.66
2018-06-09T04:54:31.141Z,78.54
2018-06-09T04:56:59.462Z,79.70
2018-06-09T04:59:27.815Z,75.82
2018-06-09T05:01:56.149Z,68.74
2018-06-09T05:04:24.512Z,73.00
2018-06-09T05:06:52.834Z,75.28
2018-06-09T05:09:21.184Z,77.88
2018-06-09T05:11:49.505Z,73.18
2018-06-09T05:14:17.854Z,71.60
2018-06-09T05:16:46.187Z,74.86
2018-06-09T05:19:14.553Z,74.34
2018-06-09T05:21:42.886Z,70.98
2018-06-09T05:24:11.237Z,69.52
2018-06-09T05:26:39.576Z,69.82
2018-06-09T05:29:07.946Z,65.44
2018-06-09T05:31:36.273Z,62.94
2018-06-09T05:34:04.616Z,60.78
2018-06-09T05:36:32.938Z,58.56
2018-06-09T05:39:00.522Z,60.70
2018-06-09T05:41:28.853Z,60.36
2018-06-09T05:43:57.206Z,59.74
2018-06-09T05:46:25.535Z,60.82
2018-06-09T05:48:53.901Z,62.68
2018-06-09T05:51:21.469Z,60.82
2018-06-09T05:53:49.827Z,58.08
2018-06-09T05:56:18.171Z,61.96
2018-06-09T05:58:46.489Z,61.20
2018-06-09T06:01:14.846Z,61.50
2018-06-09T06:03:43.172Z,62.96
2018-06-09T06:06:11.533Z,59.92
2018-06-09T06:08:40.400Z,60.68
2018-06-09T06:11:08.752Z,61.44
2018-06-09T06:13:37.073Z,58.58
2018-06-09T06:16:05.431Z,53.06
2018-06-09T06:18:33.750Z,59.60
2018-06-09T06:21:02.113Z,62.70
2018-06-09T06:23:30.436Z,57.94
2018-06-09T06:25:58.801Z,60.16
2018-06-09T06:28:27.127Z,56.54
2018-06-09T06:30:55.486Z,62.88
2018-06-09T06:33:23.808Z,61.60
2018-06-09T06:35:52.160Z,60.50
2018-06-09T06:38:20.494Z,60.78
2018-06-09T06:40:48.850Z,67.16
2018-06-09T06:43:17.203Z,63.42
2018-06-09T06:45:45.561Z,61.62
2018-06-09T06:48:13.890Z,66.20
2018-06-09T06:50:42.257Z,65.94
2018-06-09T06:53:10.591Z,60.14
2018-06-09T06:55:38.916Z,59.16
2018-06-09T06:58:07.260Z,57.78
2018-06-09T07:00:35.578Z,58.32
2018-06-09T07:03:03.930Z,54.74
2018-06-09T07:05:32.249Z,56.98
2018-06-09T07:08:00.622Z,57.60
2018-06-09T07:10:28.949Z,55.36
2018-06-09T07:12:57.315Z,55.44
2018-06-09T07:15:25.634Z,57.80
2018-06-09T07:17:53.995Z,53.86
2018-06-09T07:20:22.318Z,53.20
2018-06-09T07:22:50.720Z,50.68
2018-06-09T07:25:19.048Z,51.38
2018-06-09T07:27:47.474Z,49.16
2018-06-09T07:30:15.820Z,54.18
2018-06-09T07:32:44.181Z,54.30
2018-06-09T07:35:11.801Z,51.60
2018-06-09T07:37:40.121Z,54.92
2018-06-09T07:40:08.461Z,54.84
2018-06-09T07:42:44.065Z,54.00
2018-06-09T07:45:12.393Z,53.42
2018-06-09T07:47:40.776Z,52.32
2018-06-09T07:50:09.101Z,52.86
2018-06-09T07:52:37.426Z,51.28
2018-06-09T07:55:06.010Z,52.20
2018-06-09T07:57:35.056Z,53.04
2018-06-09T08:00:03.408Z,52.14
2018-06-09T08:02:31.742Z,51.22
2018-06-09T08:05:00.110Z,51.22
2018-06-09T08:07:28.445Z,56.04
2018-06-09T08:09:56.800Z,55.16
2018-06-09T08:12:25.183Z,58.02
2018-06-09T08:14:53.539Z,55.20
2018-06-09T08:17:21.094Z,55.14
2018-06-09T08:19:49.447Z,56.52
2018-06-09T08:22:17.837Z,53.22
2018-06-09T08:24:46.327Z,57.02
2018-06-09T08:27:14.733Z,55.94
2018-06-09T08:29:43.192Z,52.48
2018-06-09T08:32:11.512Z,48.96
2018-06-09T08:34:39.881Z,50.96
2018-06-09T08:37:08.197Z,51.26
2018-06-09T08:39:36.509Z,48.54
2018-06-09T08:42:04.895Z,50.00
2018-06-09T08:44:33.209Z,47.64
2018-06-09T08:47:01.560Z,47.14
2018-06-09T08:49:29.886Z,51.06
2018-06-09T08:51:58.355Z,50.88
2018-06-09T08:54:26.676Z,52.42
2018-06-09T08:56:55.083Z,51.54
2018-06-09T08:59:23.391Z,52.48
2018-06-09T09:01:51.745Z,52.50
2018-06-09T09:04:20.078Z,50.22
2018-06-09T09:06:47.674Z,52.48
2018-06-09T09:09:16.010Z,51.00
2018-06-09T09:11:44.445Z,53.84
2018-06-09T09:14:12.853Z,53.96
2018-06-09T09:16:41.267Z,53.58
2018-06-09T09:19:09.685Z,51.14
2018-06-09T09:21:38.292Z,51.74
2018-06-09T09:24:06.621Z,53.12
2018-06-09T09:26:34.981Z,51.96
2018-06-09T09:29:03.300Z,54.78
2018-06-09T09:31:31.628Z,54.86
2018-06-09T09:33:59.977Z,49.44
2018-06-09T09:36:28.301Z,52.62
2018-06-09T09:38:56.669Z,50.92
2018-06-09T09:41:24.986Z,49.44
2018-06-09T09:43:53.357Z,51.56
2018-06-09T09:46:21.733Z,48.98
2018-06-09T09:48:50.065Z,50.26
2018-06-09T09:51:17.625Z,48.72
2018-06-09T09:53:45.985Z,48.94
2018-06-09T09:56:14.327Z,51.28
2018-06-09T09:58:42.680Z,47.44
2018-06-09T10:01:11.012Z,48.30
2018-06-09T10:03:39.359Z,49.78
2018-06-09T10:06:08.313Z,47.86
2018-06-09T10:08:36.673Z,48.96
2018-06-09T10:11:05.004Z,45.76
2018-06-09T10:13:33.352Z,45.08
2018-06-09T10:16:01.686Z,46.62
2018-06-09T10:18:30.044Z,42.84
2018-06-09T10:20:58.379Z,42.52
2018-06-09T10:23:26.732Z,44.10
2018-06-09T10:25:55.052Z,45.64
2018-06-09T10:28:23.401Z,44.80
2018-06-09T10:30:50.956Z,45.96
2018-06-09T10:33:19.313Z,44.30
2018-06-09T10:35:47.650Z,44.12
2018-06-09T10:38:16.000Z,46.02
2018-06-09T10:40:44.321Z,46.52
2018-06-09T10:43:12.671Z,45.40
2018-06-09T10:45:40.994Z,47.74
2018-06-09T10:48:09.348Z,48.88
2018-06-09T10:50:37.688Z,47.60
2018-06-09T10:53:06.046Z,49.04
2018-06-09T10:55:34.372Z,48.32
2018-06-09T10:58:02.731Z,50.70
2018-06-09T11:00:31.050Z,49.14
2018-06-09T11:02:59.536Z,52.24
2018-06-09T11:05:27.907Z,49.98
2018-06-09T11:07:56.235Z,51.08
2018-06-09T11:10:24.598Z,48.28
2018-06-09T11:12:52.985Z,47.66
2018-06-09T11:15:21.490Z,45.60
2018-06-09T11:17:49.910Z,46.38
2018-06-09T11:20:18.324Z,47.80
2018-06-09T11:22:46.651Z,45.66
2018-06-09T11:25:15.008Z,47.72
2018-06-09T11:27:43.328Z,47.00
2018-06-09T11:30:11.690Z,43.72
2018-06-09T11:32:40.021Z,46.58
2018-06-09T11:35:08.377Z,50.92
2018-06-09T11:37:36.780Z,45.92
2018-06-09T11:40:05.143Z,45.52
2018-06-09T11:42:33.601Z,45.52
2018-06-09T11:45:02.004Z,44.44
2018-06-09T11:47:30.331Z,45.32
2018-06-09T11:49:58.687Z,43.80
2018-06-09T11:52:27.001Z,44.60
2018-06-09T11:54:55.356Z,46.18
2018-06-09T11:57:23.688Z,46.72
2018-06-09T11:59:52.038Z,40.46
2018-06-09T12:02:20.376Z,43.32
2018-06-09T12:04:47.966Z,45.28
2018-06-09T12:07:16.302Z,44.24
2018-06-09T12:09:44.651Z,42.48
2018-06-09T12:12:13.037Z,43.54
2018-06-09T12:14:41.394Z,41.06
2018-06-09T12:17:09.830Z,46.12
2018-06-09T12:19:38.138Z,46.36
2018-06-09T12:22:06.500Z,42.62
2018-06-09T12:24:34.872Z,45.88
2018-06-09T12:27:03.245Z,43.24
2018-06-09T12:29:31.562Z,43.18
2018-06-09T12:31:59.921Z,41.92
2018-06-09T12:34:28.254Z,43.36
2018-06-09T12:36:56.610Z,44.42
2018-06-09T12:39:24.975Z,41.50
2018-06-09T12:41:53.312Z,40.90
2018-06-09T12:44:21.653Z,42.58
2018-06-09T12:46:50.001Z,47.00
2018-06-09T12:49:18.337Z,41.46
2018-06-09T12:51:46.690Z,40.90
2018-06-09T12:54:15.025Z,40.28
2018-06-09T12:56:43.423Z,40.92
2018-06-09T12:59:11.774Z,42.62
2018-06-09T13:01:39.379Z,41.84
2018-06-09T13:04:07.711Z,41.84
2018-06-09T13:06:36.025Z,41.14
2018-06-09T13:09:04.398Z,41.62
2018-06-09T13:11:31.944Z,40.72
2018-06-09T13:14:00.348Z,37.44
2018-06-09T13:16:28.677Z,41.40
2018-06-09T13:18:57.034Z,39.84
2018-06-09T13:21:25.352Z,38.62
2018-06-09T13:23:53.702Z,41.28
2018-06-09T13:26:21.258Z,40.10
2018-06-09T13:28:49.612Z,42.86
2018-06-09T13:31:17.945Z,40.64
2018-06-09T13:33:46.298Z,38.10
2018-06-09T13:36:14.639Z,38.98
2018-06-09T13:38:43.013Z,40.76
2018-06-09T13:41:11.604Z,40.04
2018-06-09T13:43:40.329Z,38.08
2018-06-09T13:46:09.005Z,36.42
2018-06-09T13:48:37.358Z,37.68
2018-06-09T13:51:04.917Z,36.16
2018-06-09T13:53:33.268Z,35.74
2018-06-09T13:56:01.607Z,37.00
2018-06-09T13:58:29.976Z,40.44
2018-06-09T14:00:58.310Z,35.16
2018-06-09T14:03:26.669Z,35.54
2018-06-09T14:05:55.001Z,37.18
2018-06-09T14:08:23.364Z,34.02
2018-06-09T14:10:51.739Z,36.52
2018-06-09T14:13:20.253Z,34.84
2018-06-09T14:15:48.623Z,32.94
2018-06-09T14:18:17.014Z,32.34
2018-06-09T14:20:45.454Z,34.84
2018-06-09T14:23:13.776Z,37.68
2018-06-09T14:25:42.151Z,35.70
2018-06-09T14:28:10.483Z,35.30
2018-06-09T14:30:38.841Z,35.42
2018-06-09T14:33:07.164Z,35.02
2018-06-09T14:35:34.763Z,35.14
2018-06-09T14:38:03.091Z,35.02
2018-06-09T14:40:31.467Z,34.86
2018-06-09T14:42:59.778Z,35.58
2018-06-09T14:45:28.140Z,36.78
2018-06-09T14:47:56.461Z,34.72
2018-06-09T14:50:24.814Z,35.70
2018-06-09T14:52:53.133Z,34.92
2018-06-09T14:55:20.733Z,35.18
2018-06-09T14:57:48.293Z,37.46
2018-06-09T15:00:16.656Z,37.22
2018-06-09T15:02:44.983Z,40.50
2018-06-09T15:05:13.337Z,37.26
2018-06-09T15:07:41.668Z,37.08
2018-06-09T15:10:10.022Z,39.08
2018-06-09T15:12:38.353Z,35.12
2018-06-09T15:15:06.705Z,35.88
2018-06-09T15:17:35.070Z,35.12
2018-06-09T15:20:03.401Z,36.22
2018-06-09T15:22:31.758Z,35.46
2018-06-09T15:25:00.083Z,36.90
2018-06-09T15:27:28.447Z,39.52
2018-06-09T15:29:56.765Z,36.68
2018-06-09T15:32:25.124Z,35.52
2018-06-09T15:34:53.443Z,39.66
2018-06-09T15:37:21.789Z,37.56
2018-06-09T15:39:50.137Z,40.40
2018-06-09T15:42:18.503Z,39.88
2018-06-09T15:44:46.062Z,37.32
2018-06-09T15:47:14.424Z,34.72
2018-06-09T15:49:42.745Z,38.64
2018-06-09T15:52:11.203Z,34.58
2018-06-09T15:54:39.530Z,40.22
2018-06-09T15:57:10.226Z,38.98
2018-06-09T15:59:38.587Z,40.10
2018-06-09T16:02:06.933Z,41.74
2018-06-09T16:04:35.255Z,37.72
2018-06-09T16:07:03.607Z,35.92
2018-06-09T16:09:31.933Z,37.70
2018-06-09T16:12:00.277Z,38.86
2018-06-09T16:14:27.830Z,41.54
2018-06-09T16:16:56.182Z,42.62
2018-06-09T16:19:24.513Z,41.00
2018-06-09T16:21:52.878Z,34.92
2018-06-09T16:24:21.198Z,38.70
2018-06-09T16:26:49.519Z,40.32
2018-06-09T16:29:17.890Z,39.54
2018-06-09T16:31:46.217Z,40.48
2018-06-09T16:34:14.589Z,36.98
2018-06-09T16:36:42.925Z,37.48
2018-06-09T16:39:11.294Z,37.72
2018-06-09T16:41:39.618Z,36.52
2018-06-09T16:44:08.002Z,37.88
2018-06-09T16:46:36.322Z,36.06
2018-06-09T16:49:04.680Z,39.46
2018-06-09T16:51:33.022Z,39.00
2018-06-09T16:54:01.391Z,38.12
2018-06-09T16:56:28.946Z,37.36
2018-06-09T16:58:57.292Z,37.74
2018-06-09T17:01:25.613Z,37.44
2018-06-09T17:03:53.957Z,35.88
2018-06-09T17:06:22.287Z,35.86
2018-06-09T17:08:50.637Z,37.26
2018-06-09T17:11:19.016Z,38.16
2018-06-09T17:13:47.555Z,35.68
2018-06-09T17:16:15.963Z,34.30
2018-06-09T17:18:44.444Z,35.56
2018-06-09T17:21:12.778Z,36.42
2018-06-09T17:23:41.134Z,34.06
2018-06-09T17:26:09.497Z,32.90
2018-06-09T17:28:37.814Z,33.24
2018-06-09T17:31:06.153Z,33.56
2018-06-09T17:33:34.490Z,35.62
2018-06-09T17:36:02.840Z,34.40
2018-06-09T17:38:31.186Z,31.82
2018-06-09T17:40:59.549Z,34.72
2018-06-09T17:43:27.918Z,33.32
2018-06-09T17:45:56.263Z,37.00
2018-06-09T17:48:24.086Z,36.76
2018-06-09T17:50:52.585Z,35.80
2018-06-09T17:53:20.980Z,38.90
2018-06-09T17:55:48.712Z,37.32
2018-06-09T17:58:16.414Z,36.10
2018-06-09T18:00:45.057Z,37.06
2018-06-09T18:03:13.375Z,37.00
2018-06-09T18:05:42.067Z,33.90
2018-06-09T18:08:10.447Z,34.58
2018-06-09T18:10:38.921Z,35.16
2018-06-09T18:13:07.249Z,33.12
2018-06-09T18:15:35.597Z,33.44
2018-06-09T18:18:03.921Z,36.82
2018-06-09T18:20:31.557Z,36.00
2018-06-09T18:22:59.951Z,37.06
2018-06-09T18:25:28.230Z,41.82
2018-06-09T18:27:55.830Z,41.12
2018-06-09T18:30:24.211Z,41.88
2018-06-09T18:32:52.631Z,42.52
2018-06-09T18:35:20.982Z,43.10
2018-06-09T18:37:49.340Z,42.46
2018-06-09T18:40:17.842Z,42.98
2018-06-09T18:42:46.192Z,43.08
2018-06-09T18:45:14.550Z,41.38
2018-06-09T18:47:43.009Z,41.90
2018-06-09T18:50:11.340Z,44.52
2018-06-09T18:52:39.705Z,45.28
2018-06-09T18:55:07.321Z,42.04
2018-06-09T18:57:35.982Z,42.94
2018-06-09T19:00:04.343Z,42.36
2018-06-09T19:02:32.767Z,43.58
2018-06-09T19:05:01.107Z,44.46
2018-06-09T19:07:29.520Z,43.06
2018-06-09T19:09:57.898Z,41.38
2018-06-09T19:12:26.437Z,40.68
2018-06-09T19:14:54.765Z,39.02
2018-06-09T19:17:23.160Z,38.88
2018-06-09T19:19:50.706Z,41.18
2018-06-09T19:22:19.065Z,38.44
2018-06-09T19:24:47.408Z,41.90
2018-06-09T19:27:15.808Z,41.46
2018-06-09T19:29:44.193Z,40.76
2018-06-09T19:32:12.526Z,41.54
2018-06-09T19:34:40.886Z,41.36
2018-06-09T19:37:09.206Z,41.78
2018-06-09T19:39:37.575Z,39.60
2018-06-09T19:42:05.963Z,42.66
2018-06-09T19:44:34.309Z,39.58
2018-06-09T19:47:01.862Z,38.96
2018-06-09T19:49:30.381Z,37.50
2018-06-09T19:51:58.725Z,37.80
2018-06-09T19:54:27.109Z,34.02
2018-06-09T19:56:55.467Z,34.10
2018-06-09T19:59:23.823Z,32.28
2018-06-09T20:01:52.134Z,31.68
2018-06-09T20:04:20.491Z,31.60
2018-06-09T20:06:48.809Z,31.08
2018-06-09T20:09:17.257Z,27.10
2018-06-09T20:11:45.763Z,27.28
2018-06-09T20:14:14.311Z,25.58
2018-06-09T20:16:42.632Z,22.40
2018-06-09T20:19:10.995Z,22.00
2018-06-09T20:21:39.330Z,21.42
2018-06-09T20:24:07.676Z,25.06
2018-06-09T20:26:36.012Z,23.80
2018-06-09T20:29:04.372Z,22.54
2018-06-09T20:31:33.729Z,24.18
2018-06-09T20:34:02.092Z,35.64
2018-06-09T20:36:30.489Z,31.72
2018-06-09T20:38:58.809Z,23.56
2018-06-09T20:41:27.196Z,25.92
2018-06-09T20:43:55.605Z,24.72
2018-06-09T20:46:23.965Z,25.74
2018-06-09T20:48:52.302Z,20.12
2018-06-09T20:51:19.947Z,20.60
2018-06-09T20:53:48.289Z,18.76
2018-06-09T20:56:16.648Z,17.40
2018-06-09T20:58:44.969Z,18.90
2018-06-09T21:01:13.326Z,31.68
2018-06-09T21:03:41.659Z,20.40
2018-06-09T21:06:10.005Z,21.72
2018-06-09T21:08:38.335Z,17.48
2018-06-09T21:11:06.691Z,17.00
2018-06-09T21:13:35.009Z,15.42
2018-06-09T21:16:03.365Z,14.68
2018-06-09T21:18:31.721Z,16.10
2018-06-09T21:21:00.070Z,15.30
2018-06-09T21:23:28.390Z,16.04
2018-06-09T21:25:56.718Z,16.32
2018-06-09T21:28:25.064Z,19.22
2018-06-09T21:30:53.388Z,16.30
2018-06-09T21:33:21.740Z,15.38
2018-06-09T21:35:54.281Z,15.54
2018-06-09T21:38:22.625Z,22.66
2018-06-09T21:40:50.942Z,20.52
2018-06-09T21:43:19.286Z,16.50
2018-06-09T21:45:47.605Z,15.98
2018-06-09T21:48:15.993Z,15.92
2018-06-09T21:50:44.306Z,16.40
2018-06-09T21:53:12.659Z,16.16
2018-06-09T21:55:40.979Z,15.90
2018-06-09T21:58:09.358Z,15.66
2018-06-09T22:00:37.693Z,15.40
2018-06-09T22:03:06.041Z,14.98
2018-06-09T22:05:34.363Z,16.24
2018-06-09T22:08:02.719Z,15.90
2018-06-09T22:10:31.042Z,15.28
2018-06-09T22:12:59.409Z,15.56
2018-06-09T22:15:27.729Z,15.40
2018-06-09T22:17:56.072Z,16.48
2018-06-09T22:20:24.390Z,14.50
2018-06-09T22:22:52.738Z,14.32
2018-06-09T22:25:21.069Z,16.34
2018-06-09T22:27:48.664Z,15.48
2018-06-09T22:30:16.981Z,16.06
2018-06-09T22:32:45.347Z,15.84
2018-06-09T22:35:13.678Z,14.48
2018-06-09T22:37:42.037Z,15.12
2018-06-09T22:40:10.387Z,14.24
2018-06-09T22:42:38.758Z,15.48
2018-06-09T22:45:07.081Z,16.32
2018-06-09T22:47:35.399Z,15.72
2018-06-09T22:50:03.756Z,14.62
2018-06-09T22:52:32.077Z,15.24
2018-06-09T22:55:00.433Z,16.08
2018-06-09T22:57:28.764Z,15.02
2018-06-09T22:59:57.141Z,15.86
2018-06-09T23:02:25.555Z,14.64
2018-06-09T23:04:53.852Z,15.90
2018-06-09T23:07:22.175Z,13.68
2018-06-09T23:09:50.530Z,14.12
2018-06-09T23:12:18.862Z,13.70
2018-06-09T23:14:47.206Z,13.94
2018-06-09T23:17:15.542Z,15.00
2018-06-09T23:19:43.911Z,14.92
2018-06-09T23:22:12.241Z,15.28
2018-06-09T23:24:40.606Z,13.94
2018-06-09T23:27:08.936Z,13.60
2018-06-09T23:29:37.277Z,13.18
2018-06-09T23:32:05.606Z,13.66
2018-06-09T23:34:33.961Z,14.38
2018-06-09T23:37:02.281Z,14.76
2018-06-09T23:39:30.642Z,14.14
2018-06-09T23:41:58.980Z,15.08
2018-06-09T23:44:27.331Z,14.36
2018-06-09T23:46:55.667Z,13.98
2018-06-09T23:49:24.018Z,14.20
2018-06-09T23:51:52.341Z,15.86
2018-06-09T23:54:20.699Z,13.58
2018-06-09T23:56:49.024Z,14.58
2018-06-09T23:59:17.373Z,14.84
